Time;durP1;ratioP1;P1;durP2;ratioP2;P2;SDS_P1;SDS_P2;PMS_P1;PMS_P2;Temp;Humidity;BMP_temperature;BMP_pressure;BME280_temperature;BME280_humidity;BME280_pressure;Samples;Min_cycle;Max_cycle;Signal;HPM_P1;HPM_P2
2023/10/20 00:00:35;;;;;;;23.77;16.05;;;7.80;99.90;;;;;;5076173;28;20200;-59
2023/10/20 00:03:02;;;;;;;23.05;17.92;;;7.80;99.90;;;;;;5076375;28;20227;-60
2023/10/20 00:05:28;;;;;;;22.33;17.05;;;7.80;99.90;;;;;;5077986;28;20201;-60
2023/10/20 00:07:55;;;;;;;26.95;16.85;;;7.80;99.90;;;;;;5076693;28;20231;-60
2023/10/20 00:10:22;;;;;;;20.58;15.57;;;7.80;99.90;;;;;;5075466;28;20581;-60
2023/10/20 00:12:49;;;;;;;30.23;18.27;;;7.80;99.90;;;;;;5075365;28;20306;-59
2023/10/20 00:15:17;;;;;;;29.25;16.65;;;7.80;99.90;;;;;;5074127;28;20199;-61
2023/10/20 00:17:45;;;;;;;29.45;18.65;;;7.80;99.90;;;;;;5073565;28;20255;-60
2023/10/20 00:20:12;;;;;;;24.48;16.90;;;7.80;99.90;;;;;;5074203;28;20207;-60
2023/10/20 00:22:40;;;;;;;26.80;17.88;;;7.80;99.90;;;;;;5074246;28;20217;-60
2023/10/20 00:25:07;;;;;;;28.60;18.27;;;7.90;99.90;;;;;;5073994;28;20223;-60
2023/10/20 00:27:34;;;;;;;26.88;17.02;;;7.80;99.90;;;;;;5083966;28;20197;-59
2023/10/20 00:30:02;;;;;;;29.17;17.92;;;7.80;99.90;;;;;;5094648;28;20234;-60
2023/10/20 00:32:30;;;;;;;27.10;16.65;;;7.80;99.90;;;;;;5084762;28;20273;-60
2023/10/20 00:34:58;;;;;;;29.05;17.15;;;7.80;99.90;;;;;;5078426;28;20200;-60
2023/10/20 00:37:25;;;;;;;27.63;19.48;;;7.80;99.90;;;;;;5078464;28;20220;-61
2023/10/20 00:39:53;;;;;;;27.73;17.55;;;7.80;99.90;;;;;;5078125;28;20204;-60
2023/10/20 00:42:20;;;;;;;30.10;18.08;;;7.80;99.90;;;;;;5077863;28;20221;-60
2023/10/20 00:44:47;;;;;;;30.02;18.35;;;7.80;99.90;;;;;;5077896;28;20205;-60
2023/10/20 00:47:14;;;;;;;29.88;18.98;;;7.80;99.90;;;;;;5077617;28;20292;-60
2023/10/20 00:49:41;;;;;;;33.15;19.58;;;7.80;99.90;;;;;;5077522;28;20327;-60
2023/10/20 00:52:10;;;;;;;31.17;19.48;;;7.80;99.90;;;;;;5077590;28;20605;-60
2023/10/20 00:54:37;;;;;;;32.50;17.67;;;7.80;99.90;;;;;;5077843;28;20579;-60
2023/10/20 00:57:04;;;;;;;35.85;19.35;;;7.80;99.90;;;;;;5077957;28;20221;-60
2023/10/20 00:59:31;;;;;;;25.50;17.58;;;7.80;99.90;;;;;;5078034;28;20209;-60
2023/10/20 01:01:57;;;;;;;30.25;19.17;;;7.80;99.90;;;;;;5077576;28;20233;-60
2023/10/20 01:04:24;;;;;;;28.13;16.92;;;7.80;99.90;;;;;;5077664;28;20292;-60
2023/10/20 01:06:52;;;;;;;30.20;19.75;;;7.80;99.90;;;;;;5077291;28;20670;-60
2023/10/20 01:09:27;;;;;;;29.60;18.00;;;7.80;99.90;;;;;;5077027;28;20684;-59
2023/10/20 01:11:54;;;;;;;32.85;19.70;;;7.70;99.90;;;;;;5077272;28;20225;-60
2023/10/20 01:14:21;;;;;;;29.30;17.40;;;7.80;99.90;;;;;;5077472;28;20201;-60
2023/10/20 01:16:48;;;;;;;31.73;18.95;;;7.80;99.90;;;;;;5083545;28;20292;-60
2023/10/20 01:19:15;;;;;;;35.58;18.67;;;7.70;99.90;;;;;;5089601;28;20204;-60
2023/10/20 01:21:42;;;;;;;25.98;17.27;;;7.70;99.90;;;;;;5077909;28;20224;-60
2023/10/20 01:24:11;;;;;;;32.67;18.90;;;7.80;99.90;;;;;;5079385;28;20208;-60
2023/10/20 01:26:38;;;;;;;36.45;18.48;;;7.80;99.90;;;;;;5081148;28;20246;-60
2023/10/20 01:29:09;;;;;;;30.95;17.60;;;7.80;99.90;;;;;;5079638;28;20205;-60
2023/10/20 01:31:36;;;;;;;28.23;16.33;;;7.70;99.90;;;;;;5079328;28;20315;-60
2023/10/20 01:34:03;;;;;;;26.02;17.85;;;7.70;99.90;;;;;;5083492;28;20201;-60
2023/10/20 01:36:30;;;;;;;30.38;16.83;;;7.70;99.90;;;;;;5082265;28;20234;-60
2023/10/20 01:38:57;;;;;;;28.00;17.40;;;7.70;99.90;;;;;;5080504;28;20230;-60
2023/10/20 01:41:26;;;;;;;31.10;18.92;;;7.70;99.90;;;;;;5081145;28;20222;-60
2023/10/20 01:43:52;;;;;;;31.23;18.33;;;7.70;99.90;;;;;;5081397;28;20254;-61
2023/10/20 01:46:19;;;;;;;26.73;17.80;;;7.70;99.90;;;;;;5079454;28;20204;-60
2023/10/20 01:48:46;;;;;;;26.70;15.60;;;7.60;99.90;;;;;;5078995;28;20210;-60
2023/10/20 01:51:13;;;;;;;26.90;15.98;;;7.60;99.90;;;;;;5077684;28;20231;-62
2023/10/20 01:53:39;;;;;;;27.38;16.80;;;7.60;99.90;;;;;;5076076;28;20579;-60
2023/10/20 01:56:06;;;;;;;25.95;17.15;;;7.60;99.90;;;;;;5076051;28;20201;-62
2023/10/20 01:58:34;;;;;;;28.48;16.25;;;7.60;99.90;;;;;;5075778;28;20229;-62
2023/10/20 02:01:01;;;;;;;24.80;15.95;;;7.60;99.90;;;;;;5076330;28;20236;-61
2023/10/20 02:03:29;;;;;;;27.50;16.20;;;7.60;99.90;;;;;;5075426;28;20207;-61
2023/10/20 02:05:56;;;;;;;28.38;14.85;;;7.60;99.90;;;;;;5075882;28;20208;-61
2023/10/20 02:08:23;;;;;;;26.63;16.10;;;7.60;99.90;;;;;;5075699;28;20573;-61
2023/10/20 02:10:50;;;;;;;26.90;15.75;;;7.60;99.90;;;;;;5075171;28;20681;-63
2023/10/20 02:13:16;;;;;;;25.45;16.45;;;7.60;99.90;;;;;;5075476;28;20201;-63
2023/10/20 02:15:48;;;;;;;27.60;15.00;;;7.60;99.90;;;;;;5075196;28;20204;-60
2023/10/20 02:18:14;;;;;;;22.67;13.68;;;7.60;99.90;;;;;;5075767;28;20212;-61
2023/10/20 02:20:41;;;;;;;28.23;15.75;;;7.50;99.90;;;;;;5075590;28;20675;-61
2023/10/20 02:23:08;;;;;;;21.70;14.27;;;7.50;99.90;;;;;;5075077;28;20233;-61
2023/10/20 02:25:35;;;;;;;25.10;14.80;;;7.50;99.90;;;;;;5075318;28;20205;-61
2023/10/20 02:28:02;;;;;;;22.90;15.63;;;7.50;99.90;;;;;;5075639;28;20200;-62
2023/10/20 02:30:32;;;;;;;24.98;13.55;;;7.50;99.90;;;;;;5075238;28;20202;-61
2023/10/20 02:33:03;;;;;;;18.80;13.40;;;7.50;99.90;;;;;;5075085;28;20780;-61
2023/10/20 02:35:30;;;;;;;19.92;12.98;;;7.60;99.90;;;;;;5074963;28;20565;-61
2023/10/20 02:37:57;;;;;;;21.60;14.15;;;7.60;99.90;;;;;;5074849;28;20775;-62
2023/10/20 02:40:24;;;;;;;19.67;14.50;;;7.60;99.90;;;;;;5075169;28;20292;-62
2023/10/20 02:42:50;;;;;;;24.20;14.75;;;7.60;99.90;;;;;;5075185;28;20216;-61
2023/10/20 02:45:17;;;;;;;27.35;15.05;;;7.60;99.90;;;;;;5075401;28;20574;-62
2023/10/20 02:47:44;;;;;;;23.70;14.07;;;7.60;99.90;;;;;;5085754;28;20197;-61
2023/10/20 02:50:12;;;;;;;19.80;13.95;;;7.60;99.90;;;;;;5090040;28;20209;-62
2023/10/20 02:52:40;;;;;;;23.17;13.40;;;7.60;99.90;;;;;;5076023;28;20219;-61
2023/10/20 02:55:07;;;;;;;30.63;15.60;;;7.60;99.90;;;;;;5075048;28;20752;-61
2023/10/20 02:57:36;;;;;;;21.42;15.57;;;7.60;99.90;;;;;;5074993;28;20219;-61
2023/10/20 03:00:04;;;;;;;22.25;15.52;;;7.60;99.90;;;;;;5075356;28;20205;-62
2023/10/20 03:02:31;;;;;;;25.13;14.68;;;7.60;99.90;;;;;;5075076;28;20228;-61
2023/10/20 03:04:58;;;;;;;23.58;14.45;;;7.60;99.90;;;;;;5074895;28;20201;-61
2023/10/20 03:07:27;;;;;;;21.38;14.27;;;7.60;99.90;;;;;;5074927;28;20287;-61
2023/10/20 03:09:54;;;;;;;24.83;14.80;;;7.50;99.90;;;;;;5074612;28;20208;-61
2023/10/20 03:12:21;;;;;;;25.00;16.35;;;7.50;99.90;;;;;;5074831;28;20221;-62
2023/10/20 03:14:47;;;;;;;24.77;14.90;;;7.50;99.90;;;;;;5075118;28;20201;-59
2023/10/20 03:17:16;;;;;;;24.80;15.27;;;7.50;99.90;;;;;;5074691;28;20571;-62
2023/10/20 03:19:44;;;;;;;21.80;14.88;;;7.50;99.90;;;;;;5074663;28;20208;-61
2023/10/20 03:22:12;;;;;;;22.38;14.40;;;7.50;99.90;;;;;;5074758;28;20224;-62
2023/10/20 03:24:40;;;;;;;22.42;14.57;;;7.50;99.90;;;;;;5074822;28;20201;-61
2023/10/20 03:27:08;;;;;;;23.65;15.25;;;7.50;99.90;;;;;;5074553;28;20204;-61
2023/10/20 03:29:35;;;;;;;22.80;14.05;;;7.50;99.90;;;;;;5074519;28;20225;-61
2023/10/20 03:32:03;;;;;;;26.60;14.88;;;7.50;99.90;;;;;;5074392;28;20308;-61
2023/10/20 03:34:31;;;;;;;24.23;14.50;;;7.50;99.90;;;;;;5074217;28;20306;-60
2023/10/20 03:36:58;;;;;;;28.50;15.88;;;7.50;99.90;;;;;;5074513;28;20221;-62
2023/10/20 03:39:26;;;;;;;24.50;14.38;;;7.50;99.90;;;;;;5074371;28;20227;-61
2023/10/20 03:41:55;;;;;;;29.13;15.43;;;7.50;99.90;;;;;;5073897;28;20589;-61
2023/10/20 03:44:22;;;;;;;26.52;15.48;;;7.40;99.90;;;;;;5074097;28;20237;-61
2023/10/20 03:46:49;;;;;;;30.85;15.68;;;7.40;99.90;;;;;;5074311;28;20203;-61
2023/10/20 03:49:18;;;;;;;23.13;15.38;;;7.40;99.90;;;;;;5074723;28;20200;-61
2023/10/20 03:51:49;;;;;;;29.52;15.90;;;7.40;99.90;;;;;;5080303;28;20270;-62
2023/10/20 03:54:16;;;;;;;25.50;15.27;;;7.40;99.90;;;;;;5082743;28;20187;-61
2023/10/20 03:56:43;;;;;;;37.75;15.88;;;7.40;99.90;;;;;;5074629;28;20252;-60
2023/10/20 03:59:13;;;;;;;30.23;15.25;;;7.40;99.90;;;;;;5074646;28;20224;-62
2023/10/20 04:01:40;;;;;;;27.85;14.88;;;7.40;99.90;;;;;;5074679;28;20225;-61
2023/10/20 04:04:08;;;;;;;31.92;16.88;;;7.40;99.90;;;;;;5073775;28;20203;-61
2023/10/20 04:06:36;;;;;;;28.23;14.50;;;7.40;99.90;;;;;;5073746;28;20292;-61
2023/10/20 04:12:22;;;;;;;29.67;15.50;;;7.40;99.90;;;;;;5090717;28;21136;-61
2023/10/20 04:14:49;;;;;;;31.75;17.00;;;7.40;99.90;;;;;;5090913;28;20587;-60
2023/10/20 04:17:16;;;;;;;24.77;16.45;;;7.30;99.90;;;;;;5090963;28;20204;-60
2023/10/20 04:19:43;;;;;;;29.15;16.00;;;7.30;99.90;;;;;;5091310;28;20200;-61
2023/10/20 04:22:13;;;;;;;32.92;15.73;;;7.40;99.90;;;;;;5091325;28;20212;-60
2023/10/20 04:24:41;;;;;;;33.25;17.40;;;7.40;99.90;;;;;;5091980;28;20204;-62
2023/10/20 04:27:20;;;;;;;35.95;17.08;;;7.30;99.90;;;;;;5092483;28;20206;-61
2023/10/20 04:41:51;;;;;;;29.63;16.08;;;7.30;99.90;;;;;;5092722;28;20613;-59
2023/10/20 04:43:37;;;;;;;28.83;14.98;;;7.30;99.90;;;;;;5091176;28;20231;-61
2023/10/20 04:49:26;;;;;;;31.27;16.88;;;7.20;99.90;;;;;;5090980;28;20254;-61
2023/10/20 04:52:05;;;;;;;32.03;15.95;;;7.30;99.90;;;;;;5090909;28;20224;-60
2023/10/20 04:54:45;;;;;;;31.05;16.25;;;7.20;99.90;;;;;;5090776;28;20204;-59
2023/10/20 04:57:39;;;;;;;35.42;17.65;;;7.20;99.90;;;;;;5090639;28;20187;-61
2023/10/20 05:00:34;;;;;;;32.20;15.95;;;7.20;99.90;;;;;;5090434;28;20293;-60
2023/10/20 05:03:15;;;;;;;31.10;16.33;;;7.20;99.90;;;;;;5090459;28;20221;-61
2023/10/20 05:05:44;;;;;;;25.65;15.35;;;7.20;99.90;;;;;;5100412;28;20191;-61
2023/10/20 05:08:17;;;;;;;21.95;15.05;;;7.20;99.90;;;;;;5099252;28;20204;-61
2023/10/20 05:10:45;;;;;;;27.02;16.48;;;7.20;99.90;;;;;;5091281;28;20232;-62
2023/10/20 05:13:12;;;;;;;24.63;15.75;;;7.20;99.90;;;;;;5089952;28;20204;-60
2023/10/20 05:15:40;;;;;;;28.55;16.45;;;7.20;99.90;;;;;;5090390;28;20223;-61
2023/10/20 05:18:11;;;;;;;34.40;16.83;;;7.20;99.90;;;;;;5089810;28;20690;-63
2023/10/20 05:20:38;;;;;;;30.73;17.85;;;7.20;99.90;;;;;;5090101;28;20185;-61
2023/10/20 05:23:05;;;;;;;24.20;14.25;;;7.20;99.90;;;;;;5080797;28;20246;-62
2023/10/20 05:25:32;;;;;;;30.00;15.73;;;7.20;99.90;;;;;;5076667;28;20287;-59
2023/10/20 05:28:00;;;;;;;26.42;16.38;;;7.20;99.90;;;;;;5076410;28;20279;-62
2023/10/20 05:30:27;;;;;;;26.02;17.20;;;7.20;99.90;;;;;;5076784;28;20254;-61
2023/10/20 05:32:54;;;;;;;26.15;17.63;;;7.20;99.90;;;;;;5076131;28;20263;-60
2023/10/20 05:35:22;;;;;;;24.83;17.10;;;7.20;99.90;;;;;;5076772;28;20642;-61
2023/10/20 05:37:48;;;;;;;25.13;16.45;;;7.20;99.90;;;;;;5076300;28;20201;-62
2023/10/20 05:40:16;;;;;;;25.42;16.80;;;7.20;99.90;;;;;;5076309;28;20301;-62
2023/10/20 05:42:42;;;;;;;26.60;18.63;;;7.20;99.90;;;;;;5075604;28;20569;-61
2023/10/20 05:45:10;;;;;;;31.70;17.17;;;7.20;99.90;;;;;;5076132;28;20200;-59
2023/10/20 05:47:37;;;;;;;24.80;16.13;;;7.20;99.90;;;;;;5076069;28;20197;-62
2023/10/20 05:50:05;;;;;;;23.88;16.88;;;7.20;99.90;;;;;;5075632;28;20303;-61
2023/10/20 05:52:35;;;;;;;21.80;14.52;;;7.20;99.90;;;;;;5075698;28;20248;-61
2023/10/20 05:55:03;;;;;;;28.50;16.08;;;7.20;99.90;;;;;;5076079;28;20197;-61
2023/10/20 05:57:29;;;;;;;24.35;15.45;;;7.20;99.90;;;;;;5075431;28;20615;-60
2023/10/20 05:59:59;;;;;;;24.90;15.95;;;7.20;99.90;;;;;;5075948;28;20200;-61
2023/10/20 06:02:25;;;;;;;22.50;16.35;;;7.20;99.90;;;;;;5075772;28;20312;-60
2023/10/20 06:04:52;;;;;;;20.20;15.05;;;7.20;99.90;;;;;;5075759;28;20201;-62
2023/10/20 06:07:19;;;;;;;20.98;14.32;;;7.20;99.90;;;;;;5075624;28;20196;-61
2023/10/20 06:09:49;;;;;;;22.88;15.48;;;7.20;99.90;;;;;;5075873;28;20204;-61
2023/10/20 06:12:16;;;;;;;20.25;14.50;;;7.20;99.90;;;;;;5074962;28;20714;-62
2023/10/20 06:14:43;;;;;;;18.95;14.23;;;7.20;99.90;;;;;;5076263;28;20287;-62
2023/10/20 06:17:10;;;;;;;23.33;14.70;;;7.20;99.90;;;;;;5075676;28;20293;-62
2023/10/20 06:19:37;;;;;;;15.95;12.90;;;7.20;99.90;;;;;;5075381;28;20224;-61
2023/10/20 06:22:05;;;;;;;20.00;13.10;;;7.20;99.90;;;;;;5075260;28;20221;-61
2023/10/20 06:24:33;;;;;;;17.02;12.00;;;7.20;99.90;;;;;;5075764;28;20303;-60
2023/10/20 06:27:03;;;;;;;16.25;12.02;;;7.20;99.90;;;;;;5082859;28;20237;-60
2023/10/20 06:29:42;;;;;;;15.98;13.18;;;7.20;99.90;;;;;;5078218;28;20258;-62
2023/10/20 06:32:19;;;;;;;15.95;12.77;;;7.20;99.90;;;;;;5075605;28;20600;-62
2023/10/20 06:34:47;;;;;;;16.08;10.98;;;7.20;99.90;;;;;;5074263;28;20368;-62
2023/10/20 06:37:20;;;;;;;17.73;12.30;;;7.20;99.90;;;;;;5076080;28;20212;-61
2023/10/20 06:39:48;;;;;;;17.77;12.43;;;7.20;99.90;;;;;;5075136;28;20195;-61
2023/10/20 06:42:17;;;;;;;12.77;11.38;;;7.20;99.90;;;;;;5075258;28;20233;-62
2023/10/20 06:44:44;;;;;;;15.18;11.77;;;7.20;99.90;;;;;;5075054;28;20204;-62
2023/10/20 06:47:11;;;;;;;16.38;12.00;;;7.20;99.90;;;;;;5075749;28;20211;-62
2023/10/20 06:49:38;;;;;;;14.70;10.52;;;7.20;99.90;;;;;;5075333;28;20250;-62
2023/10/20 06:52:05;;;;;;;14.30;11.40;;;7.20;99.90;;;;;;5074842;28;20224;-60
2023/10/20 06:54:32;;;;;;;14.38;11.70;;;7.20;99.90;;;;;;5076489;28;20220;-60
2023/10/20 06:57:00;;;;;;;15.27;11.15;;;7.20;99.90;;;;;;5075752;28;20208;-62
2023/10/20 06:59:28;;;;;;;15.07;11.07;;;7.20;99.90;;;;;;5076223;28;20739;-61
2023/10/20 07:01:59;;;;;;;13.95;11.57;;;7.30;99.90;;;;;;5075072;28;20590;-61
2023/10/20 07:04:27;;;;;;;14.73;10.93;;;7.30;99.90;;;;;;5074383;28;20192;-61
2023/10/20 07:06:53;;;;;;;12.05;10.75;;;7.30;99.90;;;;;;5074830;28;20739;-61
2023/10/20 07:09:20;;;;;;;16.13;12.07;;;7.30;99.90;;;;;;5075344;28;20208;-61
2023/10/20 07:11:48;;;;;;;10.32;8.75;;;7.20;99.90;;;;;;5074428;28;20225;-62
2023/10/20 07:14:15;;;;;;;11.73;9.65;;;7.20;99.90;;;;;;5075306;28;20201;-62
2023/10/20 07:16:43;;;;;;;11.52;9.93;;;7.20;99.90;;;;;;5076126;28;20201;-62
2023/10/20 07:19:12;;;;;;;12.30;10.63;;;7.20;99.90;;;;;;5074879;28;20212;-61
2023/10/20 07:21:39;;;;;;;11.40;8.82;;;7.20;99.90;;;;;;5076025;28;20227;-62
2023/10/20 07:24:06;;;;;;;14.88;10.00;;;7.20;99.90;;;;;;5078240;28;20212;-61
2023/10/20 07:26:34;;;;;;;11.43;8.07;;;7.20;99.90;;;;;;5084669;28;20683;-62
2023/10/20 07:29:01;;;;;;;9.75;8.70;;;7.20;99.90;;;;;;5080354;28;20622;-61
2023/10/20 07:31:28;;;;;;;10.65;7.65;;;7.30;99.90;;;;;;5077362;28;20571;-62
2023/10/20 07:33:58;;;;;;;6.95;6.22;;;7.30;99.90;;;;;;5076643;28;20223;-61
2023/10/20 07:36:24;;;;;;;7.93;6.43;;;7.20;99.90;;;;;;5075570;28;20273;-62
2023/10/20 07:38:51;;;;;;;9.75;7.32;;;7.20;99.90;;;;;;5074988;28;20200;-62
2023/10/20 07:41:18;;;;;;;6.35;5.75;;;7.30;99.90;;;;;;5074791;28;20224;-62
2023/10/20 07:43:45;;;;;;;5.90;5.30;;;7.20;99.90;;;;;;5074691;28;20201;-62
2023/10/20 07:46:16;;;;;;;8.57;7.30;;;7.20;99.90;;;;;;5075269;28;20258;-62
2023/10/20 07:48:43;;;;;;;5.88;5.10;;;7.20;99.90;;;;;;5075849;28;20200;-62
2023/10/20 07:51:11;;;;;;;6.10;5.47;;;7.20;99.90;;;;;;5075467;28;20730;-61
2023/10/20 07:53:38;;;;;;;6.20;5.45;;;7.20;99.90;;;;;;5075211;28;20205;-62
2023/10/20 07:56:05;;;;;;;6.55;5.38;;;7.20;99.90;;;;;;5074395;28;20205;-62
2023/10/20 07:58:33;;;;;;;5.60;5.15;;;7.20;99.90;;;;;;5074667;28;20197;-62
2023/10/20 08:01:00;;;;;;;6.13;5.20;;;7.20;99.90;;;;;;5074243;28;20209;-61
2023/10/20 08:03:27;;;;;;;7.43;5.75;;;7.20;99.90;;;;;;5074532;28;20255;-62
2023/10/20 08:05:54;;;;;;;6.55;5.30;;;7.20;99.90;;;;;;5077993;28;20690;-61
2023/10/20 08:08:22;;;;;;;5.25;4.60;;;7.30;99.90;;;;;;5076731;28;20201;-61
2023/10/20 08:10:49;;;;;;;5.75;4.50;;;7.30;99.90;;;;;;5076429;28;20209;-62
2023/10/20 08:13:16;;;;;;;4.13;3.65;;;7.30;99.90;;;;;;5076217;28;20235;-61
2023/10/20 08:15:43;;;;;;;5.95;3.63;;;7.30;99.90;;;;;;5076216;28;20675;-61
2023/10/20 08:18:10;;;;;;;4.97;3.92;;;7.30;99.90;;;;;;5077197;28;20637;-62
2023/10/20 08:20:37;;;;;;;4.30;3.60;;;7.30;99.90;;;;;;5077015;28;20205;-61
2023/10/20 08:23:04;;;;;;;5.30;4.20;;;7.30;99.90;;;;;;5076057;28;20219;-60
2023/10/20 08:25:32;;;;;;;5.07;4.60;;;7.30;99.90;;;;;;5075999;28;20205;-61
2023/10/20 08:27:59;;;;;;;4.85;3.50;;;7.30;99.90;;;;;;5077475;28;20215;-60
2023/10/20 08:30:26;;;;;;;4.35;3.63;;;7.20;99.90;;;;;;5075882;28;20201;-61
2023/10/20 08:32:52;;;;;;;5.85;3.90;;;7.20;99.90;;;;;;5076752;28;20224;-62
2023/10/20 08:35:19;;;;;;;5.32;3.53;;;7.20;99.90;;;;;;5075262;28;20215;-61
2023/10/20 08:37:46;;;;;;;3.30;3.00;;;7.20;99.90;;;;;;5075262;28;20209;-62
2023/10/20 08:40:13;;;;;;;4.72;3.05;;;7.20;99.90;;;;;;5074392;28;20205;-61
2023/10/20 08:42:42;;;;;;;4.10;3.42;;;7.20;99.90;;;;;;5075094;28;20303;-61
2023/10/20 08:45:13;;;;;;;3.67;3.38;;;7.20;99.90;;;;;;5074775;28;20208;-60
2023/10/20 08:47:41;;;;;;;3.05;2.78;;;7.10;99.90;;;;;;5073898;28;20208;-62
2023/10/20 08:50:10;;;;;;;3.53;3.20;;;7.20;99.90;;;;;;5074302;28;20255;-62
2023/10/20 08:52:38;;;;;;;3.30;3.00;;;7.10;99.90;;;;;;5073561;28;20599;-62
2023/10/20 08:55:07;;;;;;;3.30;2.95;;;7.10;99.90;;;;;;5073691;28;20293;-62
2023/10/20 08:57:34;;;;;;;4.78;2.35;;;7.10;99.90;;;;;;5074659;28;20231;-61
2023/10/20 09:00:03;;;;;;;4.82;2.65;;;7.10;99.90;;;;;;5083656;28;20205;-62
2023/10/20 09:02:37;;;;;;;2.92;2.72;;;7.10;99.90;;;;;;5082523;28;20217;-62
2023/10/20 09:05:04;;;;;;;4.15;2.80;;;7.10;99.90;;;;;;5078561;28;20243;-61
2023/10/20 09:07:31;;;;;;;3.40;2.85;;;7.10;99.90;;;;;;5078097;28;20208;-61
2023/10/20 09:09:58;;;;;;;3.65;2.88;;;7.20;99.90;;;;;;5077145;28;20208;-60
2023/10/20 09:12:26;;;;;;;3.70;2.90;;;7.10;99.90;;;;;;5080703;28;20229;-61
2023/10/20 09:14:56;;;;;;;2.80;2.60;;;7.10;99.90;;;;;;5089858;28;20233;-60
2023/10/20 09:17:24;;;;;;;2.92;2.63;;;7.10;99.90;;;;;;5080547;28;20189;-61
2023/10/20 09:19:52;;;;;;;3.83;2.75;;;7.10;99.90;;;;;;5078090;28;20215;-60
2023/10/20 09:22:28;;;;;;;3.10;2.90;;;7.10;99.90;;;;;;5077489;28;20297;-61
2023/10/20 09:24:56;;;;;;;3.03;2.70;;;7.10;99.90;;;;;;5077434;28;20193;-61
2023/10/20 09:27:23;;;;;;;2.75;2.55;;;7.10;99.90;;;;;;5077414;28;20641;-61
2023/10/20 09:29:51;;;;;;;3.13;2.70;;;7.10;99.90;;;;;;5077339;28;20212;-61
2023/10/20 09:32:18;;;;;;;2.95;2.67;;;7.00;99.90;;;;;;5076569;28;20698;-60
2023/10/20 09:34:46;;;;;;;2.58;2.35;;;7.00;99.90;;;;;;5077154;28;20197;-62
2023/10/20 09:37:15;;;;;;;2.58;2.38;;;7.00;99.90;;;;;;5077861;28;20201;-60
2023/10/20 09:39:44;;;;;;;3.00;2.20;;;7.00;99.90;;;;;;5077543;28;20208;-60
2023/10/20 09:42:20;;;;;;;2.63;1.95;;;7.00;99.90;;;;;;5076623;28;20223;-62
2023/10/20 09:44:50;;;;;;;4.43;2.30;;;7.00;99.90;;;;;;5077583;28;20280;-62
2023/10/20 09:47:24;;;;;;;4.13;2.20;;;7.00;99.90;;;;;;5077000;28;20193;-60
2023/10/20 09:49:54;;;;;;;2.28;2.10;;;7.00;99.90;;;;;;5076494;28;20563;-61
2023/10/20 09:52:21;;;;;;;3.03;2.72;;;7.00;99.90;;;;;;5076585;28;20236;-61
2023/10/20 09:54:51;;;;;;;3.00;2.35;;;7.00;99.90;;;;;;5077016;28;20308;-60
2023/10/20 09:57:18;;;;;;;2.03;1.92;;;7.00;99.90;;;;;;5076306;28;20207;-61
2023/10/20 09:59:52;;;;;;;3.40;2.75;;;7.00;99.90;;;;;;5076135;28;20296;-62
2023/10/20 10:02:27;;;;;;;2.83;2.53;;;7.00;99.90;;;;;;5076178;28;20212;-61
2023/10/20 10:04:56;;;;;;;3.97;3.58;;;7.00;99.90;;;;;;5077656;28;20238;-61
2023/10/20 10:07:28;;;;;;;4.32;3.05;;;7.00;99.90;;;;;;5077995;28;20258;-61
2023/10/20 10:09:55;;;;;;;2.67;2.40;;;7.00;99.90;;;;;;5077735;28;20189;-61
2023/10/20 10:12:25;;;;;;;5.25;3.70;;;7.00;99.90;;;;;;5076014;28;20277;-61
2023/10/20 10:14:57;;;;;;;3.20;2.55;;;7.00;99.90;;;;;;5076869;28;20207;-61
2023/10/20 10:17:26;;;;;;;3.40;2.50;;;7.00;99.90;;;;;;5078796;28;20232;-63
2023/10/20 10:19:56;;;;;;;3.88;2.60;;;7.00;99.90;;;;;;5077301;28;20205;-62
2023/10/20 10:22:26;;;;;;;3.58;2.67;;;7.00;99.90;;;;;;5075743;28;20213;-60
2023/10/20 10:24:54;;;;;;;3.05;2.25;;;7.10;99.90;;;;;;5074578;28;20185;-61
2023/10/20 10:27:23;;;;;;;3.38;3.08;;;7.00;99.90;;;;;;5075227;28;20205;-62
2023/10/20 10:29:53;;;;;;;3.92;2.47;;;7.00;99.90;;;;;;5075442;28;20204;-61
2023/10/20 10:32:21;;;;;;;2.45;2.25;;;7.10;99.90;;;;;;5075013;28;20224;-62
2023/10/20 10:34:51;;;;;;;2.72;2.22;;;7.10;99.90;;;;;;5075346;28;20212;-63
2023/10/20 10:37:29;;;;;;;3.40;2.35;;;7.10;99.90;;;;;;5076240;28;20181;-61
2023/10/20 10:40:08;;;;;;;3.42;3.10;;;7.10;99.90;;;;;;5075578;28;20225;-61
2023/10/20 10:42:42;;;;;;;2.97;2.53;;;7.00;99.90;;;;;;5075438;28;20251;-60
2023/10/20 10:45:21;;;;;;;2.55;2.03;;;7.10;99.90;;;;;;5075159;28;20190;-61
2023/10/20 10:47:48;;;;;;;3.38;3.08;;;7.10;99.90;;;;;;5074901;28;20196;-62
2023/10/20 10:50:16;;;;;;;2.92;2.13;;;7.10;99.90;;;;;;5074927;28;20201;-62
2023/10/20 10:52:44;;;;;;;2.60;2.28;;;7.00;99.90;;;;;;5074938;28;20248;-61
2023/10/20 10:55:11;;;;;;;2.95;2.75;;;7.10;99.90;;;;;;5075461;28;20228;-65
2023/10/20 10:57:40;;;;;;;3.10;2.50;;;7.10;99.90;;;;;;5075406;28;20749;-61
2023/10/20 11:00:08;;;;;;;3.25;2.10;;;7.00;99.90;;;;;;5074795;28;20338;-61
2023/10/20 11:02:35;;;;;;;2.80;2.05;;;7.10;99.90;;;;;;5074418;28;20724;-61
2023/10/20 11:05:02;;;;;;;3.17;1.92;;;7.10;99.90;;;;;;5074928;28;20205;-61
2023/10/20 11:07:29;;;;;;;2.75;2.55;;;7.10;99.90;;;;;;5075136;28;20197;-61
2023/10/20 11:09:57;;;;;;;1.92;1.73;;;7.10;99.90;;;;;;5074913;28;20201;-62
2023/10/20 11:12:24;;;;;;;2.25;2.05;;;7.10;99.90;;;;;;5076244;28;20229;-61
2023/10/20 11:14:51;;;;;;;1.92;1.60;;;7.10;99.90;;;;;;5075859;28;20203;-61
2023/10/20 11:17:18;;;;;;;2.20;1.70;;;7.10;99.90;;;;;;5074907;28;20205;-61
2023/10/20 11:19:45;;;;;;;1.90;1.80;;;7.10;99.90;;;;;;5074976;28;20240;-61
2023/10/20 11:22:16;;;;;;;2.60;1.70;;;7.10;99.90;;;;;;5074579;28;20221;-61
2023/10/20 11:24:43;;;;;;;2.80;2.00;;;7.10;99.90;;;;;;5075111;28;20185;-62
2023/10/20 11:27:11;;;;;;;3.63;2.47;;;7.10;99.90;;;;;;5074471;28;20227;-61
2023/10/20 11:29:38;;;;;;;2.50;2.30;;;7.10;99.90;;;;;;5074038;28;20204;-62
2023/10/20 11:32:07;;;;;;;1.73;1.63;;;7.10;99.90;;;;;;5074279;28;20224;-61
2023/10/20 11:34:34;;;;;;;2.00;1.90;;;7.00;99.90;;;;;;5080360;28;20193;-66
2023/10/20 11:37:02;;;;;;;2.10;1.85;;;7.00;99.90;;;;;;5079035;28;20203;-61
2023/10/20 11:39:29;;;;;;;2.95;1.80;;;7.00;99.90;;;;;;5074468;28;20209;-61
2023/10/20 11:41:56;;;;;;;2.20;2.00;;;7.00;99.90;;;;;;5073686;28;20252;-61
2023/10/20 11:44:26;;;;;;;3.30;2.00;;;7.00;99.90;;;;;;5073554;28;20288;-62
2023/10/20 11:46:53;;;;;;;2.10;1.90;;;7.00;99.90;;;;;;5074675;28;20212;-62
2023/10/20 11:49:20;;;;;;;2.70;1.80;;;7.00;99.90;;;;;;5075945;28;20209;-61
2023/10/20 11:51:47;;;;;;;2.40;2.20;;;7.00;99.90;;;;;;5074705;28;20228;-62
2023/10/20 11:54:14;;;;;;;2.95;2.20;;;7.10;99.90;;;;;;5074530;28;20231;-61
2023/10/20 11:56:41;;;;;;;1.83;1.60;;;7.10;99.90;;;;;;5074366;28;20624;-61
2023/10/20 11:59:08;;;;;;;1.73;1.63;;;7.10;99.90;;;;;;5074747;28;20208;-62
2023/10/20 12:01:36;;;;;;;1.80;1.60;;;7.00;99.90;;;;;;5075034;28;20278;-61
2023/10/20 12:04:05;;;;;;;1.73;1.60;;;7.00;99.90;;;;;;5074711;28;20224;-61
2023/10/20 12:06:34;;;;;;;1.98;1.77;;;7.00;99.90;;;;;;5075746;28;20204;-60
2023/10/20 12:09:01;;;;;;;1.60;1.50;;;7.00;99.90;;;;;;5074133;28;20201;-59
2023/10/20 12:11:28;;;;;;;1.80;1.70;;;7.00;99.90;;;;;;5074478;28;20741;-61
2023/10/20 12:13:55;;;;;;;1.45;1.35;;;7.00;99.90;;;;;;5075118;28;20220;-61
2023/10/20 12:16:24;;;;;;;1.20;1.10;;;7.00;99.90;;;;;;5073967;28;20223;-61
2023/10/20 12:18:52;;;;;;;1.67;1.58;;;6.90;99.90;;;;;;5073346;28;20205;-61
2023/10/20 12:21:19;;;;;;;2.00;1.80;;;6.90;99.90;;;;;;5073762;28;20228;-61
2023/10/20 12:23:46;;;;;;;2.20;2.00;;;6.90;99.90;;;;;;5074175;28;20196;-62
2023/10/20 12:26:13;;;;;;;2.70;2.10;;;6.90;99.90;;;;;;5073970;28;20228;-61
2023/10/20 12:28:40;;;;;;;2.22;2.00;;;6.90;99.90;;;;;;5073627;28;20243;-62
2023/10/20 12:31:07;;;;;;;2.58;2.35;;;6.90;99.90;;;;;;5073278;28;20240;-61
2023/10/20 12:33:33;;;;;;;1.75;1.60;;;6.90;99.90;;;;;;5079379;28;20319;-60
2023/10/20 12:36:01;;;;;;;3.38;1.70;;;6.90;99.90;;;;;;5078803;28;20200;-62
2023/10/20 12:38:28;;;;;;;2.97;2.22;;;6.80;99.90;;;;;;5079434;28;20205;-61
2023/10/20 12:40:55;;;;;;;1.95;1.73;;;6.80;99.90;;;;;;5077718;28;20200;-61
2023/10/20 12:43:22;;;;;;;2.17;1.90;;;6.80;99.90;;;;;;5081516;28;20204;-61
2023/10/20 12:45:48;;;;;;;2.60;1.60;;;6.80;99.90;;;;;;5083167;28;20207;-61
2023/10/20 12:48:15;;;;;;;1.98;1.55;;;6.80;99.90;;;;;;5081055;28;20205;-60
2023/10/20 12:50:42;;;;;;;2.85;2.50;;;6.80;99.90;;;;;;5077634;28;20674;-61
2023/10/20 12:53:10;;;;;;;2.03;1.80;;;6.80;99.90;;;;;;5077773;28;20225;-59
2023/10/20 12:55:37;;;;;;;1.65;1.50;;;6.80;99.90;;;;;;5077211;28;20212;-62
2023/10/20 12:58:04;;;;;;;2.22;2.00;;;6.80;99.90;;;;;;5077360;28;20205;-62
2023/10/20 13:00:31;;;;;;;2.40;2.20;;;6.80;99.90;;;;;;5076689;28;20277;-61
2023/10/20 13:02:58;;;;;;;1.85;1.60;;;6.70;99.90;;;;;;5077172;28;20217;-60
2023/10/20 13:05:25;;;;;;;3.47;1.92;;;6.80;99.90;;;;;;5076448;28;20550;-61
2023/10/20 13:07:51;;;;;;;2.05;1.85;;;6.70;99.90;;;;;;5076570;28;20598;-62